sensor_id;sensor_type;location;lat;lon;timestamp;temperature;humidity
64918;HTU21D;52176;44.858;38.372;2023-01-28T00:01:50;-3.56;80.72
64918;HTU21D;52176;44.858;38.372;2023-01-28T00:04:16;-3.51;80.66
64918;HTU21D;52176;44.858;38.372;2023-01-28T00:06:43;-3.47;80.60
64918;HTU21D;52176;44.858;38.372;2023-01-28T00:09:09;-3.41;80.59
64918;HTU21D;52176;44.858;38.372;2023-01-28T00:11:35;-3.36;80.58
64918;HTU21D;52176;44.858;38.372;2023-01-28T00:14:02;-3.32;80.58
64918;HTU21D;52176;44.858;38.372;2023-01-28T00:16:29;-3.24;80.51
64918;HTU21D;52176;44.858;38.372;2023-01-28T00:18:55;-3.20;80.47
64918;HTU21D;52176;44.858;38.372;2023-01-28T00:21:23;-3.16;80.46
64918;HTU21D;52176;44.858;38.372;2023-01-28T00:23:52;-3.12;80.41
64918;HTU21D;52176;44.858;38.372;2023-01-28T00:26:19;-3.09;80.40
64918;HTU21D;52176;44.858;38.372;2023-01-28T00:28:52;-3.09;80.43
64918;HTU21D;52176;44.858;38.372;2023-01-28T00:31:23;-3.05;80.46
64918;HTU21D;52176;44.858;38.372;2023-01-28T00:33:53;-3.03;80.49
64918;HTU21D;52176;44.858;38.372;2023-01-28T00:36:24;-2.98;80.49
64918;HTU21D;52176;44.858;38.372;2023-01-28T00:38:51;-2.96;80.49
64918;HTU21D;52176;44.858;38.372;2023-01-28T00:41:23;-2.94;80.49
64918;HTU21D;52176;44.858;38.372;2023-01-28T00:43:50;-2.91;80.52
64918;HTU21D;52176;44.858;38.372;2023-01-28T00:46:23;-2.90;80.54
64918;HTU21D;52176;44.858;38.372;2023-01-28T00:48:51;-2.87;80.54
64918;HTU21D;52176;44.858;38.372;2023-01-28T00:51:18;-2.83;80.56
64918;HTU21D;52176;44.858;38.372;2023-01-28T00:53:48;-2.81;80.54
64918;HTU21D;52176;44.858;38.372;2023-01-28T00:56:15;-2.78;80.59
64918;HTU21D;52176;44.858;38.372;2023-01-28T00:58:43;-2.72;80.60
64918;HTU21D;52176;44.858;38.372;2023-01-28T01:01:19;-2.69;80.62
64918;HTU21D;52176;44.858;38.372;2023-01-28T01:03:46;-2.67;80.60
64918;HTU21D;52176;44.858;38.372;2023-01-28T01:06:14;-2.64;80.62
64918;HTU21D;52176;44.858;38.372;2023-01-28T01:08:40;-2.60;80.60
64918;HTU21D;52176;44.858;38.372;2023-01-28T01:11:09;-2.57;80.61
64918;HTU21D;52176;44.858;38.372;2023-01-28T01:13:38;-2.53;80.63
64918;HTU21D;52176;44.858;38.372;2023-01-28T01:16:09;-2.50;80.62
64918;HTU21D;52176;44.858;38.372;2023-01-28T01:18:36;-2.48;80.63
64918;HTU21D;52176;44.858;38.372;2023-01-28T01:21:11;-2.47;80.65
64918;HTU21D;52176;44.858;38.372;2023-01-28T01:23:38;-2.42;80.68
64918;HTU21D;52176;44.858;38.372;2023-01-28T01:26:07;-2.39;80.65
64918;HTU21D;52176;44.858;38.372;2023-01-28T01:28:34;-2.37;80.65
64918;HTU21D;52176;44.858;38.372;2023-01-28T01:31:11;-2.36;80.71
64918;HTU21D;52176;44.858;38.372;2023-01-28T01:33:38;-2.34;80.70
64918;HTU21D;52176;44.858;38.372;2023-01-28T01:36:04;-2.32;80.78
64918;HTU21D;52176;44.858;38.372;2023-01-28T01:38:31;-2.29;80.84
64918;HTU21D;52176;44.858;38.372;2023-01-28T01:40:58;-2.23;80.81
64918;HTU21D;52176;44.858;38.372;2023-01-28T01:43:50;-2.18;80.84
64918;HTU21D;52176;44.858;38.372;2023-01-28T01:46:31;-2.15;80.78
64918;HTU21D;52176;44.858;38.372;2023-01-28T01:49:05;-2.10;80.81
64918;HTU21D;52176;44.858;38.372;2023-01-28T01:51:39;-2.08;80.82
64918;HTU21D;52176;44.858;38.372;2023-01-28T01:54:08;-2.05;80.82
64918;HTU21D;52176;44.858;38.372;2023-01-28T01:56:37;-2.04;80.85
64918;HTU21D;52176;44.858;38.372;2023-01-28T01:59:13;-2.03;80.91
64918;HTU21D;52176;44.858;38.372;2023-01-28T02:01:44;-2.01;80.93
64918;HTU21D;52176;44.858;38.372;2023-01-28T02:04:26;-2.00;80.98
64918;HTU21D;52176;44.858;38.372;2023-01-28T02:06:59;-1.97;81.02
64918;HTU21D;52176;44.858;38.372;2023-01-28T02:09:33;-1.94;81.03
64918;HTU21D;52176;44.858;38.372;2023-01-28T02:14:32;-1.90;81.07
64918;HTU21D;52176;44.858;38.372;2023-01-28T02:17:00;-1.87;81.13
64918;HTU21D;52176;44.858;38.372;2023-01-28T02:20:18;-1.85;81.13
64918;HTU21D;52176;44.858;38.372;2023-01-28T02:31:14;-1.79;81.20
64918;HTU21D;52176;44.858;38.372;2023-01-28T02:36:49;-1.76;81.25
64918;HTU21D;52176;44.858;38.372;2023-01-28T02:39:31;-1.76;81.25
64918;HTU21D;52176;44.858;38.372;2023-01-28T02:42:08;-1.76;81.31
64918;HTU21D;52176;44.858;38.372;2023-01-28T02:44:38;-1.75;81.35
64918;HTU21D;52176;44.858;38.372;2023-01-28T02:47:14;-1.73;81.39
64918;HTU21D;52176;44.858;38.372;2023-01-28T02:50:04;-1.71;81.40
64918;HTU21D;52176;44.858;38.372;2023-01-28T02:56:10;-1.69;81.43
64918;HTU21D;52176;44.858;38.372;2023-01-28T02:58:55;-1.68;81.46
64918;HTU21D;52176;44.858;38.372;2023-01-28T03:01:29;-1.68;81.47
64918;HTU21D;52176;44.858;38.372;2023-01-28T03:04:19;-1.69;81.49
64918;HTU21D;52176;44.858;38.372;2023-01-28T03:06:51;-1.70;81.56
64918;HTU21D;52176;44.858;38.372;2023-01-28T03:09:21;-1.68;81.60
64918;HTU21D;52176;44.858;38.372;2023-01-28T03:12:13;-1.64;81.63
64918;HTU21D;52176;44.858;38.372;2023-01-28T03:15:00;-1.63;81.63
64918;HTU21D;52176;44.858;38.372;2023-01-28T03:18:19;-1.61;81.64
64918;HTU21D;52176;44.858;38.372;2023-01-28T03:21:15;-1.58;81.66
64918;HTU21D;52176;44.858;38.372;2023-01-28T03:24:44;-1.56;81.65
64918;HTU21D;52176;44.858;38.372;2023-01-28T03:28:09;-1.54;81.64
64918;HTU21D;52176;44.858;38.372;2023-01-28T03:31:18;-1.53;81.62
64918;HTU21D;52176;44.858;38.372;2023-01-28T03:34:07;-1.52;81.64
64918;HTU21D;52176;44.858;38.372;2023-01-28T03:36:52;-1.53;81.64
64918;HTU21D;52176;44.858;38.372;2023-01-28T03:39:31;-1.50;81.68
64918;HTU21D;52176;44.858;38.372;2023-01-28T03:42:06;-1.50;81.70
64918;HTU21D;52176;44.858;38.372;2023-01-28T03:44:38;-1.49;81.77
64918;HTU21D;52176;44.858;38.372;2023-01-28T03:47:14;-1.48;81.77
64918;HTU21D;52176;44.858;38.372;2023-01-28T03:49:45;-1.46;81.81
64918;HTU21D;52176;44.858;38.372;2023-01-28T03:52:19;-1.45;81.84
64918;HTU21D;52176;44.858;38.372;2023-01-28T03:54:46;-1.42;81.83
64918;HTU21D;52176;44.858;38.372;2023-01-28T03:57:16;-1.43;81.87
64918;HTU21D;52176;44.858;38.372;2023-01-28T03:59:45;-1.41;81.88
64918;HTU21D;52176;44.858;38.372;2023-01-28T04:02:16;-1.39;81.91
64918;HTU21D;52176;44.858;38.372;2023-01-28T04:04:42;-1.38;81.90
64918;HTU21D;52176;44.858;38.372;2023-01-28T04:07:10;-1.39;81.94
64918;HTU21D;52176;44.858;38.372;2023-01-28T04:09:56;-1.38;81.93
64918;HTU21D;52176;44.858;38.372;2023-01-28T04:12:35;-1.38;81.97
64918;HTU21D;52176;44.858;38.372;2023-01-28T04:15:05;-1.36;81.99
64918;HTU21D;52176;44.858;38.372;2023-01-28T04:17:47;-1.39;82.01
64918;HTU21D;52176;44.858;38.372;2023-01-28T04:20:20;-1.36;82.05
64918;HTU21D;52176;44.858;38.372;2023-01-28T04:22:46;-1.35;82.05
64918;HTU21D;52176;44.858;38.372;2023-01-28T04:25:13;-1.35;82.08
64918;HTU21D;52176;44.858;38.372;2023-01-28T04:27:42;-1.33;82.11
64918;HTU21D;52176;44.858;38.372;2023-01-28T04:30:18;-1.33;82.10
64918;HTU21D;52176;44.858;38.372;2023-01-28T04:32:54;-1.32;82.12
64918;HTU21D;52176;44.858;38.372;2023-01-28T04:35:45;-1.31;82.11
64918;HTU21D;52176;44.858;38.372;2023-01-28T04:38:32;-1.30;82.12
64918;HTU21D;52176;44.858;38.372;2023-01-28T04:41:06;-1.31;82.09
64918;HTU21D;52176;44.858;38.372;2023-01-28T04:43:33;-1.33;82.04
64918;HTU21D;52176;44.858;38.372;2023-01-28T04:46:18;-1.35;82.08
64918;HTU21D;52176;44.858;38.372;2023-01-28T04:49:10;-1.36;82.13
64918;HTU21D;52176;44.858;38.372;2023-01-28T04:52:02;-1.39;82.17
64918;HTU21D;52176;44.858;38.372;2023-01-28T04:54:41;-1.42;82.20
64918;HTU21D;52176;44.858;38.372;2023-01-28T04:57:07;-1.43;82.26
64918;HTU21D;52176;44.858;38.372;2023-01-28T04:59:34;-1.46;82.29
64918;HTU21D;52176;44.858;38.372;2023-01-28T05:02:00;-1.47;82.32
64918;HTU21D;52176;44.858;38.372;2023-01-28T05:04:27;-1.49;82.36
64918;HTU21D;52176;44.858;38.372;2023-01-28T05:06:53;-1.50;82.39
64918;HTU21D;52176;44.858;38.372;2023-01-28T05:09:30;-1.53;82.42
64918;HTU21D;52176;44.858;38.372;2023-01-28T05:11:56;-1.55;82.42
64918;HTU21D;52176;44.858;38.372;2023-01-28T05:14:22;-1.57;82.49
64918;HTU21D;52176;44.858;38.372;2023-01-28T05:17:06;-1.59;82.48
64918;HTU21D;52176;44.858;38.372;2023-01-28T05:19:32;-1.63;82.43
64918;HTU21D;52176;44.858;38.372;2023-01-28T05:21:59;-1.65;82.52
64918;HTU21D;52176;44.858;38.372;2023-01-28T05:24:31;-1.68;82.57
64918;HTU21D;52176;44.858;38.372;2023-01-28T05:26:57;-1.68;82.62
64918;HTU21D;52176;44.858;38.372;2023-01-28T05:29:23;-1.65;82.64
64918;HTU21D;52176;44.858;38.372;2023-01-28T05:31:49;-1.63;82.64
64918;HTU21D;52176;44.858;38.372;2023-01-28T05:34:15;-1.59;82.65
64918;HTU21D;52176;44.858;38.372;2023-01-28T05:36:43;-1.55;82.60
64918;HTU21D;52176;44.858;38.372;2023-01-28T05:39:38;-1.50;82.52
64918;HTU21D;52176;44.858;38.372;2023-01-28T05:42:04;-1.48;82.49
64918;HTU21D;52176;44.858;38.372;2023-01-28T05:44:33;-1.44;82.46
64918;HTU21D;52176;44.858;38.372;2023-01-28T05:47:28;-1.39;82.47
64918;HTU21D;52176;44.858;38.372;2023-01-28T05:50:03;-1.35;82.42
64918;HTU21D;52176;44.858;38.372;2023-01-28T05:52:43;-1.33;82.39
64918;HTU21D;52176;44.858;38.372;2023-01-28T05:55:20;-1.28;82.37
64918;HTU21D;52176;44.858;38.372;2023-01-28T05:58:06;-1.23;82.41
64918;HTU21D;52176;44.858;38.372;2023-01-28T06:00:33;-1.15;82.33
64918;HTU21D;52176;44.858;38.372;2023-01-28T06:03:04;-1.09;82.33
64918;HTU21D;52176;44.858;38.372;2023-01-28T06:05:34;-1.00;82.26
64918;HTU21D;52176;44.858;38.372;2023-01-28T06:08:00;-0.91;82.18
64918;HTU21D;52176;44.858;38.372;2023-01-28T06:10:26;-0.83;82.15
64918;HTU21D;52176;44.858;38.372;2023-01-28T06:12:55;-0.72;82.08
64918;HTU21D;52176;44.858;38.372;2023-01-28T06:15:32;-0.62;81.95
64918;HTU21D;52176;44.858;38.372;2023-01-28T06:18:21;-0.54;81.86
64918;HTU21D;52176;44.858;38.372;2023-01-28T06:20:49;-0.52;81.80
64918;HTU21D;52176;44.858;38.372;2023-01-28T06:23:25;-0.47;81.86
64918;HTU21D;52176;44.858;38.372;2023-01-28T06:25:55;-0.44;81.85
64918;HTU21D;52176;44.858;38.372;2023-01-28T06:28:23;-0.40;81.85
64918;HTU21D;52176;44.858;38.372;2023-01-28T06:30:55;-0.37;81.88
64918;HTU21D;52176;44.858;38.372;2023-01-28T06:33:21;-0.32;81.88
64918;HTU21D;52176;44.858;38.372;2023-01-28T06:35:47;-0.28;81.88
64918;HTU21D;52176;44.858;38.372;2023-01-28T06:38:15;-0.22;81.88
64918;HTU21D;52176;44.858;38.372;2023-01-28T06:40:41;-0.20;81.84
64918;HTU21D;52176;44.858;38.372;2023-01-28T06:43:10;-0.15;81.90
64918;HTU21D;52176;44.858;38.372;2023-01-28T06:45:36;-0.11;81.91
64918;HTU21D;52176;44.858;38.372;2023-01-28T06:48:03;-0.08;81.92
64918;HTU21D;52176;44.858;38.372;2023-01-28T06:50:29;-0.03;81.99
64918;HTU21D;52176;44.858;38.372;2023-01-28T06:52:55;-0.00;82.04
64918;HTU21D;52176;44.858;38.372;2023-01-28T06:55:20;0.01;82.07
64918;HTU21D;52176;44.858;38.372;2023-01-28T06:57:49;0.01;82.17
64918;HTU21D;52176;44.858;38.372;2023-01-28T07:00:18;0.03;82.23
64918;HTU21D;52176;44.858;38.372;2023-01-28T07:02:47;0.06;82.17
64918;HTU21D;52176;44.858;38.372;2023-01-28T07:05:14;0.12;82.22
64918;HTU21D;52176;44.858;38.372;2023-01-28T07:07:41;0.18;82.12
64918;HTU21D;52176;44.858;38.372;2023-01-28T07:10:07;0.27;82.07
64918;HTU21D;52176;44.858;38.372;2023-01-28T07:12:39;0.37;81.97
64918;HTU21D;52176;44.858;38.372;2023-01-28T07:15:05;0.50;81.91
64918;HTU21D;52176;44.858;38.372;2023-01-28T07:17:32;0.63;81.81
64918;HTU21D;52176;44.858;38.372;2023-01-28T07:20:01;0.78;81.70
64918;HTU21D;52176;44.858;38.372;2023-01-28T07:22:27;0.94;81.58
64918;HTU21D;52176;44.858;38.372;2023-01-28T07:24:53;1.10;81.46
64918;HTU21D;52176;44.858;38.372;2023-01-28T07:27:19;1.32;81.41
64918;HTU21D;52176;44.858;38.372;2023-01-28T07:29:45;1.43;81.17
64918;HTU21D;52176;44.858;38.372;2023-01-28T07:32:10;1.58;81.13
64918;HTU21D;52176;44.858;38.372;2023-01-28T07:34:36;1.66;80.94
64918;HTU21D;52176;44.858;38.372;2023-01-28T07:37:04;1.65;80.88
64918;HTU21D;52176;44.858;38.372;2023-01-28T07:39:31;1.69;80.94
64918;HTU21D;52176;44.858;38.372;2023-01-28T07:42:00;1.68;80.67
64918;HTU21D;52176;44.858;38.372;2023-01-28T07:44:31;1.61;80.36
64918;HTU21D;52176;44.858;38.372;2023-01-28T07:46:57;1.53;80.43
64918;HTU21D;52176;44.858;38.372;2023-01-28T07:49:23;1.49;80.60
64918;HTU21D;52176;44.858;38.372;2023-01-28T07:51:49;1.47;80.77
64918;HTU21D;52176;44.858;38.372;2023-01-28T07:54:23;1.46;80.93
64918;HTU21D;52176;44.858;38.372;2023-01-28T07:56:49;1.49;80.81
64918;HTU21D;52176;44.858;38.372;2023-01-28T07:59:15;1.50;80.84
64918;HTU21D;52176;44.858;38.372;2023-01-28T08:01:41;1.51;80.96
64918;HTU21D;52176;44.858;38.372;2023-01-28T08:04:07;1.56;80.98
64918;HTU21D;52176;44.858;38.372;2023-01-28T08:06:34;1.63;80.99
64918;HTU21D;52176;44.858;38.372;2023-01-28T08:09:06;1.69;80.80
64918;HTU21D;52176;44.858;38.372;2023-01-28T08:11:36;1.71;80.62
64918;HTU21D;52176;44.858;38.372;2023-01-28T08:14:02;1.72;80.67
64918;HTU21D;52176;44.858;38.372;2023-01-28T08:16:28;1.78;80.72
64918;HTU21D;52176;44.858;38.372;2023-01-28T08:18:56;1.85;80.68
64918;HTU21D;52176;44.858;38.372;2023-01-28T08:21:22;1.93;80.65
64918;HTU21D;52176;44.858;38.372;2023-01-28T08:23:51;2.02;80.59
64918;HTU21D;52176;44.858;38.372;2023-01-28T08:26:16;2.14;80.48
64918;HTU21D;52176;44.858;38.372;2023-01-28T08:28:42;2.23;80.33
64918;HTU21D;52176;44.858;38.372;2023-01-28T08:31:08;2.32;80.22
64918;HTU21D;52176;44.858;38.372;2023-01-28T08:33:41;2.39;79.93
64918;HTU21D;52176;44.858;38.372;2023-01-28T08:36:07;2.41;79.56
64918;HTU21D;52176;44.858;38.372;2023-01-28T08:38:33;2.43;79.78
64918;HTU21D;52176;44.858;38.372;2023-01-28T08:40:59;2.51;79.91
64918;HTU21D;52176;44.858;38.372;2023-01-28T08:43:25;2.55;79.85
64918;HTU21D;52176;44.858;38.372;2023-01-28T08:45:51;2.61;79.84
64918;HTU21D;52176;44.858;38.372;2023-01-28T08:48:20;2.66;79.54
64918;HTU21D;52176;44.858;38.372;2023-01-28T08:50:46;2.66;79.47
64918;HTU21D;52176;44.858;38.372;2023-01-28T08:53:17;2.64;79.56
64918;HTU21D;52176;44.858;38.372;2023-01-28T08:55:46;2.62;79.57
64918;HTU21D;52176;44.858;38.372;2023-01-28T08:58:14;2.62;79.66
64918;HTU21D;52176;44.858;38.372;2023-01-28T09:00:44;2.64;79.72
64918;HTU21D;52176;44.858;38.372;2023-01-28T09:03:13;2.66;79.71
64918;HTU21D;52176;44.858;38.372;2023-01-28T09:05:39;2.66;79.73
64918;HTU21D;52176;44.858;38.372;2023-01-28T09:08:11;2.68;79.72
64918;HTU21D;52176;44.858;38.372;2023-01-28T09:10:41;2.72;79.71
64918;HTU21D;52176;44.858;38.372;2023-01-28T09:13:13;2.78;79.66
64918;HTU21D;52176;44.858;38.372;2023-01-28T09:15:42;2.80;79.59
64918;HTU21D;52176;44.858;38.372;2023-01-28T09:18:11;2.84;79.58
64918;HTU21D;52176;44.858;38.372;2023-01-28T09:20:38;2.86;79.40
64918;HTU21D;52176;44.858;38.372;2023-01-28T09:23:04;2.90;79.46
64918;HTU21D;52176;44.858;38.372;2023-01-28T09:25:34;2.95;79.30
64918;HTU21D;52176;44.858;38.372;2023-01-28T09:28:06;3.00;79.21
64918;HTU21D;52176;44.858;38.372;2023-01-28T09:30:35;3.06;79.26
64918;HTU21D;52176;44.858;38.372;2023-01-28T09:33:03;3.16;79.17
64918;HTU21D;52176;44.858;38.372;2023-01-28T09:35:36;3.21;79.04
64918;HTU21D;52176;44.858;38.372;2023-01-28T09:38:02;3.27;78.87
64918;HTU21D;52176;44.858;38.372;2023-01-28T09:40:36;3.30;78.76
64918;HTU21D;52176;44.858;38.372;2023-01-28T09:45:57;3.30;78.50
64918;HTU21D;52176;44.858;38.372;2023-01-28T09:48:29;3.31;78.59
64918;HTU21D;52176;44.858;38.372;2023-01-28T09:50:57;3.35;78.60
64918;HTU21D;52176;44.858;38.372;2023-01-28T09:53:39;3.42;78.48
64918;HTU21D;52176;44.858;38.372;2023-01-28T09:56:18;3.47;78.50
64918;HTU21D;52176;44.858;38.372;2023-01-28T09:58:47;3.53;78.15
64918;HTU21D;52176;44.858;38.372;2023-01-28T10:06:59;3.64;78.01
64918;HTU21D;52176;44.858;38.372;2023-01-28T10:17:46;3.57;78.10
64918;HTU21D;52176;44.858;38.372;2023-01-28T10:20:23;3.57;78.14
64918;HTU21D;52176;44.858;38.372;2023-01-28T10:23:01;3.60;78.24
64918;HTU21D;52176;44.858;38.372;2023-01-28T10:25:30;3.65;78.18
64918;HTU21D;52176;44.858;38.372;2023-01-28T10:27:59;3.69;78.02
64918;HTU21D;52176;44.858;38.372;2023-01-28T10:30:31;3.68;77.84
64918;HTU21D;52176;44.858;38.372;2023-01-28T10:33:04;3.64;77.65
64918;HTU21D;52176;44.858;38.372;2023-01-28T10:35:35;3.60;77.63
64918;HTU21D;52176;44.858;38.372;2023-01-28T10:38:11;3.59;77.77
64918;HTU21D;52176;44.858;38.372;2023-01-28T10:40:40;3.56;77.62
64918;HTU21D;52176;44.858;38.372;2023-01-28T10:43:06;3.53;77.56
64918;HTU21D;52176;44.858;38.372;2023-01-28T10:45:37;3.50;77.70
64918;HTU21D;52176;44.858;38.372;2023-01-28T10:48:12;3.45;77.62
64918;HTU21D;52176;44.858;38.372;2023-01-28T10:50:58;3.43;77.57
64918;HTU21D;52176;44.858;38.372;2023-01-28T10:53:44;3.39;77.50
64918;HTU21D;52176;44.858;38.372;2023-01-28T10:56:35;3.35;77.66
64918;HTU21D;52176;44.858;38.372;2023-01-28T10:59:18;3.29;77.19
64918;HTU21D;52176;44.858;38.372;2023-01-28T11:04:29;3.21;77.18
64918;HTU21D;52176;44.858;38.372;2023-01-28T11:07:17;3.18;77.33
64918;HTU21D;52176;44.858;38.372;2023-01-28T11:09:46;3.15;77.29
64918;HTU21D;52176;44.858;38.372;2023-01-28T11:12:19;3.14;77.37
64918;HTU21D;52176;44.858;38.372;2023-01-28T11:14:55;3.13;77.09
64918;HTU21D;52176;44.858;38.372;2023-01-28T11:17:36;3.11;77.08
64918;HTU21D;52176;44.858;38.372;2023-01-28T11:20:22;3.11;77.03
64918;HTU21D;52176;44.858;38.372;2023-01-28T11:22:49;3.09;77.11
64918;HTU21D;52176;44.858;38.372;2023-01-28T11:25:35;3.08;77.24
64918;HTU21D;52176;44.858;38.372;2023-01-28T11:28:19;3.09;77.19
64918;HTU21D;52176;44.858;38.372;2023-01-28T11:30:50;3.06;77.30
64918;HTU21D;52176;44.858;38.372;2023-01-28T11:33:26;3.06;77.35
64918;HTU21D;52176;44.858;38.372;2023-01-28T11:36:04;3.06;77.19
64918;HTU21D;52176;44.858;38.372;2023-01-28T11:38:30;3.05;77.18
64918;HTU21D;52176;44.858;38.372;2023-01-28T11:41:00;3.03;77.31
64918;HTU21D;52176;44.858;38.372;2023-01-28T11:43:29;3.05;77.39
64918;HTU21D;52176;44.858;38.372;2023-01-28T11:46:19;3.05;77.40
64918;HTU21D;52176;44.858;38.372;2023-01-28T11:49:24;3.05;77.41
64918;HTU21D;52176;44.858;38.372;2023-01-28T12:03:27;3.04;77.56
64918;HTU21D;52176;44.858;38.372;2023-01-28T12:12:10;3.08;77.69
64918;HTU21D;52176;44.858;38.372;2023-01-28T12:14:38;3.09;77.69
64918;HTU21D;52176;44.858;38.372;2023-01-28T12:29:50;3.21;77.75
64918;HTU21D;52176;44.858;38.372;2023-01-28T12:38:14;3.23;77.90
64918;HTU21D;52176;44.858;38.372;2023-01-28T12:40:56;3.26;77.93
64918;HTU21D;52176;44.858;38.372;2023-01-28T12:45:59;3.29;77.98
64918;HTU21D;52176;44.858;38.372;2023-01-28T12:48:33;3.32;78.01
64918;HTU21D;52176;44.858;38.372;2023-01-28T12:56:55;3.40;78.04
64918;HTU21D;52176;44.858;38.372;2023-01-28T13:07:35;3.48;78.09
64918;HTU21D;52176;44.858;38.372;2023-01-28T13:12:47;3.50;78.13
64918;HTU21D;52176;44.858;38.372;2023-01-28T13:15:17;3.52;78.14
64918;HTU21D;52176;44.858;38.372;2023-01-28T13:18:04;3.54;78.19
64918;HTU21D;52176;44.858;38.372;2023-01-28T13:20:48;3.57;78.22
64918;HTU21D;52176;44.858;38.372;2023-01-28T13:28:56;3.59;78.24
64918;HTU21D;52176;44.858;38.372;2023-01-28T13:31:37;3.62;78.25
64918;HTU21D;52176;44.858;38.372;2023-01-28T13:36:52;3.64;78.26
64918;HTU21D;52176;44.858;38.372;2023-01-28T13:39:21;3.65;78.27
64918;HTU21D;52176;44.858;38.372;2023-01-28T13:41:53;3.68;78.28
64918;HTU21D;52176;44.858;38.372;2023-01-28T13:44:32;3.70;78.30
64918;HTU21D;52176;44.858;38.372;2023-01-28T13:47:17;3.71;78.31
64918;HTU21D;52176;44.858;38.372;2023-01-28T13:49:53;3.72;78.30
64918;HTU21D;52176;44.858;38.372;2023-01-28T13:52:44;3.74;78.31
64918;HTU21D;52176;44.858;38.372;2023-01-28T14:12:05;3.80;78.34
64918;HTU21D;52176;44.858;38.372;2023-01-28T14:20:03;3.76;78.32
64918;HTU21D;52176;44.858;38.372;2023-01-28T14:22:30;3.75;78.34
64918;HTU21D;52176;44.858;38.372;2023-01-28T14:24:59;3.75;78.37
64918;HTU21D;52176;44.858;38.372;2023-01-28T14:27:37;3.74;78.40
64918;HTU21D;52176;44.858;38.372;2023-01-28T14:30:07;3.74;78.43
64918;HTU21D;52176;44.858;38.372;2023-01-28T14:32:48;3.74;78.47
64918;HTU21D;52176;44.858;38.372;2023-01-28T14:35:27;3.74;78.49
64918;HTU21D;52176;44.858;38.372;2023-01-28T14:37:55;3.74;78.51
64918;HTU21D;52176;44.858;38.372;2023-01-28T14:40:27;3.72;78.59
64918;HTU21D;52176;44.858;38.372;2023-01-28T14:42:54;3.72;78.63
64918;HTU21D;52176;44.858;38.372;2023-01-28T14:48:36;3.68;78.74
64918;HTU21D;52176;44.858;38.372;2023-01-28T14:51:41;3.62;78.82
64918;HTU21D;52176;44.858;38.372;2023-01-28T14:54:23;3.58;78.89
64918;HTU21D;52176;44.858;38.372;2023-01-28T14:57:27;3.54;79.00
64918;HTU21D;52176;44.858;38.372;2023-01-28T15:00:01;3.52;79.10
64918;HTU21D;52176;44.858;38.372;2023-01-28T15:02:42;3.48;79.23
64918;HTU21D;52176;44.858;38.372;2023-01-28T15:05:19;3.48;79.33
64918;HTU21D;52176;44.858;38.372;2023-01-28T15:07:49;3.47;79.43
64918;HTU21D;52176;44.858;38.372;2023-01-28T15:10:17;3.49;79.43
64918;HTU21D;52176;44.858;38.372;2023-01-28T15:12:53;3.47;79.50
64918;HTU21D;52176;44.858;38.372;2023-01-28T15:15:28;3.46;79.56
64918;HTU21D;52176;44.858;38.372;2023-01-28T15:18:05;3.44;79.68
64918;HTU21D;52176;44.858;38.372;2023-01-28T15:20:35;3.43;79.75
64918;HTU21D;52176;44.858;38.372;2023-01-28T15:23:02;3.41;79.85
64918;HTU21D;52176;44.858;38.372;2023-01-28T15:25:33;3.39;79.91
64918;HTU21D;52176;44.858;38.372;2023-01-28T15:28:00;3.38;80.04
64918;HTU21D;52176;44.858;38.372;2023-01-28T15:30:29;3.36;80.15
64918;HTU21D;52176;44.858;38.372;2023-01-28T15:33:28;3.38;80.19
64918;HTU21D;52176;44.858;38.372;2023-01-28T15:35:56;3.35;80.35
64918;HTU21D;52176;44.858;38.372;2023-01-28T15:38:26;3.38;80.43
64918;HTU21D;52176;44.858;38.372;2023-01-28T15:43:24;3.44;80.66
64918;HTU21D;52176;44.858;38.372;2023-01-28T15:45:53;3.48;80.76
64918;HTU21D;52176;44.858;38.372;2023-01-28T15:48:26;3.54;80.81
64918;HTU21D;52176;44.858;38.372;2023-01-28T15:51:03;3.59;80.87
64918;HTU21D;52176;44.858;38.372;2023-01-28T15:54:03;3.65;80.85
64918;HTU21D;52176;44.858;38.372;2023-01-28T15:56:33;3.70;80.88
64918;HTU21D;52176;44.858;38.372;2023-01-28T16:01:41;3.76;80.97
64918;HTU21D;52176;44.858;38.372;2023-01-28T16:04:24;3.79;81.07
64918;HTU21D;52176;44.858;38.372;2023-01-28T16:06:55;3.82;81.10
64918;HTU21D;52176;44.858;38.372;2023-01-28T16:09:28;3.83;81.21
64918;HTU21D;52176;44.858;38.372;2023-01-28T16:12:10;3.83;81.30
64918;HTU21D;52176;44.858;38.372;2023-01-28T16:14:56;3.84;81.39
64918;HTU21D;52176;44.858;38.372;2023-01-28T16:17:38;3.86;81.46
64918;HTU21D;52176;44.858;38.372;2023-01-28T16:20:41;3.87;81.52
64918;HTU21D;52176;44.858;38.372;2023-01-28T16:23:30;3.89;81.55
64918;HTU21D;52176;44.858;38.372;2023-01-28T16:26:00;3.91;81.57
64918;HTU21D;52176;44.858;38.372;2023-01-28T16:28:32;3.92;81.46
64918;HTU21D;52176;44.858;38.372;2023-01-28T16:30:59;3.90;81.55
64918;HTU21D;52176;44.858;38.372;2023-01-28T16:33:25;3.93;81.68
64918;HTU21D;52176;44.858;38.372;2023-01-28T16:35:52;3.92;81.80
64918;HTU21D;52176;44.858;38.372;2023-01-28T16:38:19;3.94;82.05
64918;HTU21D;52176;44.858;38.372;2023-01-28T16:40:52;3.98;82.20
64918;HTU21D;52176;44.858;38.372;2023-01-28T16:43:19;4.05;82.41
64918;HTU21D;52176;44.858;38.372;2023-01-28T16:45:47;4.10;82.10
64918;HTU21D;52176;44.858;38.372;2023-01-28T16:48:16;4.16;82.08
64918;HTU21D;52176;44.858;38.372;2023-01-28T16:50:48;4.21;82.10
64918;HTU21D;52176;44.858;38.372;2023-01-28T16:53:19;4.24;82.16
64918;HTU21D;52176;44.858;38.372;2023-01-28T16:55:50;4.27;82.27
64918;HTU21D;52176;44.858;38.372;2023-01-28T16:58:21;4.29;82.40
64918;HTU21D;52176;44.858;38.372;2023-01-28T17:00:54;4.28;82.56
64918;HTU21D;52176;44.858;38.372;2023-01-28T17:03:20;4.26;82.67
64918;HTU21D;52176;44.858;38.372;2023-01-28T17:05:55;4.22;82.71
64918;HTU21D;52176;44.858;38.372;2023-01-28T17:08:22;4.16;82.77
64918;HTU21D;52176;44.858;38.372;2023-01-28T17:10:57;4.13;82.84
64918;HTU21D;52176;44.858;38.372;2023-01-28T17:13:23;4.07;82.94
64918;HTU21D;52176;44.858;38.372;2023-01-28T17:16:00;4.03;82.97
64918;HTU21D;52176;44.858;38.372;2023-01-28T17:18:28;3.99;83.00
64918;HTU21D;52176;44.858;38.372;2023-01-28T17:21:04;3.93;83.10
64918;HTU21D;52176;44.858;38.372;2023-01-28T17:23:34;3.89;83.13
64918;HTU21D;52176;44.858;38.372;2023-01-28T17:26:05;3.87;83.20
64918;HTU21D;52176;44.858;38.372;2023-01-28T17:28:31;3.83;83.26
64918;HTU21D;52176;44.858;38.372;2023-01-28T17:30:57;3.79;83.29
64918;HTU21D;52176;44.858;38.372;2023-01-28T17:33:26;3.75;83.38
64918;HTU21D;52176;44.858;38.372;2023-01-28T17:35:53;3.72;83.45
64918;HTU21D;52176;44.858;38.372;2023-01-28T17:38:28;3.69;83.52
64918;HTU21D;52176;44.858;38.372;2023-01-28T17:41:00;3.64;83.57
64918;HTU21D;52176;44.858;38.372;2023-01-28T17:43:27;3.61;83.58
64918;HTU21D;52176;44.858;38.372;2023-01-28T17:45:53;3.58;83.64
64918;HTU21D;52176;44.858;38.372;2023-01-28T17:48:22;3.56;83.69
64918;HTU21D;52176;44.858;38.372;2023-01-28T17:50:48;3.53;83.74
64918;HTU21D;52176;44.858;38.372;2023-01-28T17:53:15;3.52;83.75
64918;HTU21D;52176;44.858;38.372;2023-01-28T17:55:41;3.47;83.79
64918;HTU21D;52176;44.858;38.372;2023-01-28T17:58:07;3.44;83.81